createdAt,value
2022-08-28T00:00:19.191Z,0.00
2022-08-28T00:01:19.176Z,0.00
2022-08-28T00:02:19.248Z,0.00
2022-08-28T00:03:19.142Z,0.00
2022-08-28T00:04:19.157Z,0.00
2022-08-28T00:05:19.123Z,0.00
2022-08-28T00:06:19.108Z,0.00
2022-08-28T00:07:19.095Z,0.00
2022-08-28T00:08:19.078Z,0.00
2022-08-28T00:09:19.060Z,0.00
2022-08-28T00:10:19.055Z,0.00
2022-08-28T00:11:19.039Z,0.00
2022-08-28T00:12:19.027Z,0.00
2022-08-28T00:13:19.138Z,0.00
2022-08-28T00:14:18.995Z,0.00
2022-08-28T00:15:18.984Z,0.00
2022-08-28T00:16:19.074Z,0.00
2022-08-28T00:17:18.959Z,0.00
2022-08-28T00:18:18.954Z,0.00
2022-08-28T00:19:18.929Z,0.00
2022-08-28T00:20:18.915Z,0.00
2022-08-28T00:21:18.898Z,0.00
2022-08-28T00:22:18.890Z,0.00
2022-08-28T00:23:18.877Z,0.00
2022-08-28T00:24:18.870Z,0.00
2022-08-28T00:25:18.852Z,0.00
2022-08-28T00:26:18.845Z,0.00
2022-08-28T00:27:18.821Z,0.00
2022-08-28T00:28:24.011Z,0.00
2022-08-28T00:29:18.795Z,0.00
2022-08-28T00:30:18.801Z,0.00
2022-08-28T00:31:18.824Z,0.00
2022-08-28T00:32:18.752Z,0.00
2022-08-28T00:33:18.739Z,0.00
2022-08-28T00:34:18.726Z,0.00
2022-08-28T00:35:19.739Z,0.00
2022-08-28T00:36:18.703Z,0.00
2022-08-28T00:37:18.684Z,0.00
2022-08-28T00:38:18.680Z,0.00
2022-08-28T00:39:18.655Z,0.00
2022-08-28T00:40:20.046Z,0.00
2022-08-28T00:41:24.810Z,0.00
2022-08-28T00:42:19.636Z,0.00
2022-08-28T00:43:18.604Z,0.00
2022-08-28T00:44:18.595Z,0.00
2022-08-28T00:45:18.579Z,0.00
2022-08-28T00:46:18.619Z,0.00
2022-08-28T00:47:18.543Z,0.00
2022-08-28T00:48:18.539Z,0.00
2022-08-28T00:49:18.520Z,0.00
2022-08-28T00:50:18.515Z,0.00
2022-08-28T00:51:18.493Z,0.00
2022-08-28T00:52:18.478Z,0.00
2022-08-28T00:53:18.464Z,0.00
2022-08-28T00:54:18.454Z,0.00
2022-08-28T00:55:18.442Z,0.00
2022-08-28T00:56:18.435Z,0.00
2022-08-28T00:57:18.416Z,0.00
2022-08-28T00:58:18.400Z,0.00
2022-08-28T00:59:18.387Z,0.00
2022-08-28T01:00:18.372Z,0.00
2022-08-28T01:01:18.393Z,0.00
2022-08-28T01:02:18.497Z,0.00
2022-08-28T01:03:18.330Z,0.00
2022-08-28T01:04:18.315Z,0.00
2022-08-28T01:05:18.296Z,0.00
2022-08-28T01:06:18.294Z,0.00
2022-08-28T01:07:18.273Z,0.00
2022-08-28T01:08:18.656Z,0.00
2022-08-28T01:09:21.008Z,0.00
2022-08-28T01:10:18.237Z,0.00
2022-08-28T01:11:18.223Z,0.00
2022-08-28T01:12:18.213Z,0.00
2022-08-28T01:13:18.192Z,0.00
2022-08-28T01:14:18.188Z,0.00
2022-08-28T01:15:18.169Z,0.00
2022-08-28T01:16:18.230Z,0.00
2022-08-28T01:17:18.148Z,0.00
2022-08-28T01:18:18.127Z,0.00
2022-08-28T01:19:18.109Z,0.00
2022-08-28T01:20:18.101Z,0.00
2022-08-28T01:21:20.261Z,0.00
2022-08-28T01:22:18.070Z,0.00
2022-08-28T01:23:18.062Z,0.00
2022-08-28T01:24:18.040Z,0.00
2022-08-28T01:25:18.030Z,0.00
2022-08-28T01:26:18.018Z,0.00
2022-08-28T01:27:18.010Z,0.00
2022-08-28T01:28:17.988Z,0.00
2022-08-28T01:29:17.985Z,0.00
2022-08-28T01:30:17.962Z,0.00
2022-08-28T01:31:17.994Z,0.00
2022-08-28T01:32:17.936Z,0.00
2022-08-28T01:33:17.928Z,0.00
2022-08-28T01:34:17.911Z,0.00
2022-08-28T01:35:17.895Z,0.00
2022-08-28T01:36:17.886Z,0.00
2022-08-28T01:37:17.874Z,0.00
2022-08-28T01:38:21.898Z,0.00
2022-08-28T01:39:18.862Z,0.00
2022-08-28T01:40:17.941Z,0.00
2022-08-28T01:41:17.815Z,0.00
2022-08-28T01:42:17.797Z,0.00
2022-08-28T01:43:17.791Z,0.00
2022-08-28T01:44:18.129Z,0.00
2022-08-28T01:45:17.762Z,0.00
2022-08-28T01:46:17.817Z,0.00
2022-08-28T01:47:17.733Z,0.00
2022-08-28T01:48:17.718Z,0.00
2022-08-28T01:49:17.707Z,0.00
2022-08-28T01:50:17.708Z,0.00
2022-08-28T01:51:20.494Z,0.00
2022-08-28T01:52:18.695Z,0.00
2022-08-28T01:53:18.676Z,0.00
2022-08-28T01:54:17.636Z,0.00
2022-08-28T01:55:21.486Z,0.00
2022-08-28T01:56:17.608Z,0.00
2022-08-28T01:57:17.600Z,0.00
2022-08-28T01:58:17.583Z,0.00
2022-08-28T01:59:17.567Z,0.00
2022-08-28T02:00:17.553Z,0.00
2022-08-28T02:01:17.639Z,0.00
2022-08-28T02:02:17.524Z,0.00
2022-08-28T02:03:17.518Z,0.00
2022-08-28T02:04:17.535Z,0.00
2022-08-28T02:05:17.490Z,0.00
2022-08-28T02:06:17.469Z,0.00
2022-08-28T02:07:17.465Z,0.00
2022-08-28T02:08:17.447Z,0.00
2022-08-28T02:09:17.439Z,0.00
2022-08-28T02:10:17.427Z,0.00
2022-08-28T02:11:17.406Z,0.00
2022-08-28T02:12:17.398Z,0.00
2022-08-28T02:13:17.451Z,0.00
2022-08-28T02:14:17.364Z,0.00
2022-08-28T02:15:17.354Z,0.00
2022-08-28T02:16:17.381Z,0.00
2022-08-28T02:17:17.327Z,0.00
2022-08-28T02:18:17.310Z,0.00
2022-08-28T02:19:17.296Z,0.00
2022-08-28T02:20:17.285Z,0.00
2022-08-28T02:21:17.277Z,0.00
2022-08-28T02:22:17.261Z,0.00
2022-08-28T02:23:17.246Z,0.00
2022-08-28T02:24:17.234Z,0.00
2022-08-28T02:25:17.217Z,0.00
2022-08-28T02:26:17.210Z,0.00
2022-08-28T02:27:17.193Z,0.00
2022-08-28T02:28:17.179Z,0.00
2022-08-28T02:29:17.179Z,0.00
2022-08-28T02:30:17.161Z,0.00
2022-08-28T02:31:17.190Z,0.00
2022-08-28T02:32:17.126Z,0.00
2022-08-28T02:33:17.105Z,0.00
2022-08-28T02:34:17.097Z,0.00
2022-08-28T02:35:17.081Z,0.00
2022-08-28T02:36:17.071Z,0.00
2022-08-28T02:37:17.051Z,0.00
2022-08-28T02:38:17.039Z,0.00
2022-08-28T02:39:17.029Z,0.00
2022-08-28T02:40:17.100Z,0.00
2022-08-28T02:41:16.999Z,0.00
2022-08-28T02:42:16.993Z,0.00
2022-08-28T02:43:16.981Z,0.00
2022-08-28T02:44:16.964Z,0.00
2022-08-28T02:45:16.945Z,0.00
2022-08-28T02:46:16.958Z,0.00
2022-08-28T02:47:16.927Z,0.00
2022-08-28T02:48:17.565Z,0.00
2022-08-28T02:49:16.897Z,0.00
2022-08-28T02:50:16.882Z,0.00
2022-08-28T02:51:16.872Z,0.00
2022-08-28T02:52:16.858Z,0.00
2022-08-28T02:53:16.839Z,0.00
2022-08-28T02:54:16.827Z,0.00
2022-08-28T02:55:16.813Z,0.00
2022-08-28T02:56:16.807Z,0.00
2022-08-28T02:57:16.790Z,0.00
2022-08-28T02:58:16.783Z,0.00
2022-08-28T02:59:16.764Z,0.00
2022-08-28T03:00:17.165Z,0.00
2022-08-28T03:01:16.796Z,0.00
2022-08-28T03:02:16.830Z,0.00
2022-08-28T03:03:16.708Z,0.00
2022-08-28T03:04:16.695Z,0.00
2022-08-28T03:05:16.678Z,0.00
2022-08-28T03:06:16.671Z,0.00
2022-08-28T03:07:16.646Z,0.00
2022-08-28T03:08:16.639Z,0.00
2022-08-28T03:09:16.620Z,0.00
2022-08-28T03:10:16.613Z,0.00
2022-08-28T03:11:16.591Z,0.00
2022-08-28T03:12:16.582Z,0.00
2022-08-28T03:13:26.503Z,0.00
2022-08-28T03:14:17.587Z,0.00
2022-08-28T03:15:16.548Z,0.00
2022-08-28T03:16:16.561Z,0.00
2022-08-28T03:17:16.517Z,0.00
2022-08-28T03:18:16.781Z,0.00
2022-08-28T03:19:16.490Z,0.00
2022-08-28T03:20:16.482Z,0.00
2022-08-28T03:21:16.459Z,0.00
2022-08-28T03:22:16.447Z,0.00
2022-08-28T03:23:16.433Z,0.00
2022-08-28T03:24:16.430Z,0.00
2022-08-28T03:25:16.410Z,0.00
2022-08-28T03:26:16.399Z,0.00
2022-08-28T03:27:16.379Z,0.00
2022-08-28T03:28:16.370Z,0.00
2022-08-28T03:29:16.354Z,0.00
2022-08-28T03:30:16.340Z,0.00
2022-08-28T03:31:16.372Z,0.00
2022-08-28T03:32:16.314Z,0.00
2022-08-28T03:33:16.300Z,0.00
2022-08-28T03:34:16.285Z,0.00
2022-08-28T03:35:16.277Z,0.00
2022-08-28T03:36:16.269Z,0.00
2022-08-28T03:37:16.249Z,0.00
2022-08-28T03:38:16.237Z,0.00
2022-08-28T03:39:16.224Z,0.00
2022-08-28T03:40:16.285Z,0.00
2022-08-28T03:41:16.196Z,0.00
2022-08-28T03:42:16.180Z,0.00
2022-08-28T03:43:16.165Z,0.00
2022-08-28T03:44:16.156Z,0.00
2022-08-28T03:45:16.135Z,0.00
2022-08-28T03:46:16.246Z,0.00
2022-08-28T03:47:16.112Z,0.00
2022-08-28T03:48:16.095Z,0.00
2022-08-28T03:49:16.095Z,0.00
2022-08-28T03:50:16.070Z,0.00
2022-08-28T03:51:16.064Z,0.00
2022-08-28T03:52:16.047Z,0.00
2022-08-28T03:53:16.032Z,0.00
2022-08-28T03:54:16.024Z,0.00
2022-08-28T03:55:16.002Z,0.00
2022-08-28T03:56:15.995Z,0.00
2022-08-28T03:57:15.972Z,0.00
2022-08-28T03:58:19.055Z,0.00
2022-08-28T03:59:15.949Z,0.00
2022-08-28T04:00:15.944Z,0.00
2022-08-28T04:01:16.031Z,0.00
2022-08-28T04:02:15.918Z,0.00
2022-08-28T04:03:16.013Z,0.00
2022-08-28T04:04:15.889Z,0.00
2022-08-28T04:05:15.874Z,0.00
2022-08-28T04:06:15.861Z,0.00
2022-08-28T04:07:15.844Z,0.00
2022-08-28T04:08:15.836Z,0.00
2022-08-28T04:09:15.814Z,0.00
2022-08-28T04:10:15.812Z,0.00
2022-08-28T04:11:15.787Z,0.00
2022-08-28T04:12:15.778Z,0.00
2022-08-28T04:13:15.757Z,0.00
2022-08-28T04:14:15.751Z,0.00
2022-08-28T04:15:15.738Z,0.00
2022-08-28T04:16:15.750Z,0.00
2022-08-28T04:17:15.714Z,0.00
2022-08-28T04:18:15.699Z,0.00
2022-08-28T04:19:15.680Z,0.00
2022-08-28T04:20:15.675Z,0.00
2022-08-28T04:21:15.654Z,0.00
2022-08-28T04:22:15.646Z,0.00
2022-08-28T04:23:15.622Z,0.00
2022-08-28T04:24:15.615Z,0.00
2022-08-28T04:25:15.601Z,0.00
2022-08-28T04:26:15.593Z,0.00
2022-08-28T04:27:15.576Z,0.00
2022-08-28T04:28:15.567Z,0.00
2022-08-28T04:29:15.547Z,0.00
2022-08-28T04:30:15.541Z,0.00
2022-08-28T04:31:15.599Z,0.00
2022-08-28T04:32:15.608Z,0.00
2022-08-28T04:33:15.490Z,0.00
2022-08-28T04:34:15.480Z,0.00
2022-08-28T04:35:15.465Z,0.00
2022-08-28T04:36:15.455Z,0.00
2022-08-28T04:37:15.442Z,5.62
2022-08-28T04:38:15.696Z,5.62
2022-08-28T04:39:15.416Z,5.62
2022-08-28T04:40:15.486Z,5.62
2022-08-28T04:41:15.386Z,5.62
2022-08-28T04:42:15.383Z,5.62
2022-08-28T04:43:15.358Z,5.62
2022-08-28T04:44:15.348Z,5.62
2022-08-28T04:45:15.337Z,5.62
2022-08-28T04:46:15.355Z,5.62
2022-08-28T04:47:15.304Z,11.25
2022-08-28T04:48:15.670Z,11.25
2022-08-28T04:49:15.273Z,11.25
2022-08-28T04:50:15.266Z,11.25
2022-08-28T04:51:15.247Z,11.25
2022-08-28T04:52:15.236Z,11.25
2022-08-28T04:53:15.227Z,11.25
2022-08-28T04:54:15.212Z,11.25
2022-08-28T04:55:15.198Z,11.25
2022-08-28T04:56:15.188Z,11.25
2022-08-28T04:57:15.170Z,11.25
2022-08-28T04:58:15.160Z,11.25
2022-08-28T04:59:15.141Z,11.25
2022-08-28T05:00:15.137Z,11.25
2022-08-28T05:01:15.274Z,16.88
2022-08-28T05:02:15.199Z,16.88
2022-08-28T05:03:15.094Z,16.88
2022-08-28T05:04:15.087Z,22.50
2022-08-28T05:05:15.067Z,22.50
2022-08-28T05:06:15.055Z,28.12
2022-08-28T05:07:15.037Z,28.12
2022-08-28T05:08:15.243Z,28.12
2022-08-28T05:09:15.012Z,28.12
2022-08-28T05:10:15.002Z,28.12
2022-08-28T05:11:30.738Z,33.75
2022-08-28T05:12:15.990Z,33.75
2022-08-28T05:13:14.957Z,33.75
2022-08-28T05:14:16.281Z,33.75
2022-08-28T05:15:14.925Z,33.75
2022-08-28T05:16:15.011Z,28.12
2022-08-28T05:17:14.904Z,28.12
2022-08-28T05:18:14.891Z,28.12
2022-08-28T05:19:14.877Z,28.12
2022-08-28T05:20:14.866Z,33.75
2022-08-28T05:21:14.850Z,39.38
2022-08-28T05:22:14.842Z,45.00
2022-08-28T05:23:14.826Z,45.00
2022-08-28T05:24:14.814Z,50.62
2022-08-28T05:25:14.793Z,56.25
2022-08-28T05:26:14.786Z,61.88
2022-08-28T05:27:14.767Z,67.50
2022-08-28T05:28:14.944Z,73.12
2022-08-28T05:29:14.747Z,78.75
2022-08-28T05:30:14.727Z,84.38
2022-08-28T05:31:14.733Z,90.00
2022-08-28T05:32:14.692Z,90.00
2022-08-28T05:33:14.684Z,95.62
2022-08-28T05:34:14.670Z,101.25
2022-08-28T05:35:14.665Z,101.25
2022-08-28T05:36:14.643Z,101.25
2022-08-28T05:37:19.438Z,101.25
2022-08-28T05:38:15.013Z,106.88
2022-08-28T05:39:14.605Z,106.88
2022-08-28T05:40:14.616Z,106.88
2022-08-28T05:41:14.581Z,112.50
2022-08-28T05:42:14.562Z,118.12
2022-08-28T05:43:14.553Z,118.12
2022-08-28T05:44:14.533Z,112.50
2022-08-28T05:45:14.526Z,112.50
2022-08-28T05:46:14.575Z,106.88
2022-08-28T05:47:14.496Z,112.50
2022-08-28T05:48:14.637Z,112.50
2022-08-28T05:49:14.465Z,118.12
2022-08-28T05:50:14.451Z,129.38
2022-08-28T05:51:14.446Z,135.00
2022-08-28T05:52:14.430Z,140.62
2022-08-28T05:53:14.417Z,146.25
2022-08-28T05:54:14.398Z,146.25
2022-08-28T05:55:14.392Z,146.25
2022-08-28T05:56:14.380Z,151.88
2022-08-28T05:57:14.361Z,146.25
2022-08-28T05:58:14.480Z,140.62
2022-08-28T05:59:14.333Z,129.38
2022-08-28T06:00:14.317Z,118.12
2022-08-28T06:01:14.316Z,118.12
2022-08-28T06:02:14.343Z,112.50
2022-08-28T06:03:14.281Z,106.88
2022-08-28T06:04:14.335Z,101.25
2022-08-28T06:05:14.256Z,101.25
2022-08-28T06:06:14.240Z,95.62
2022-08-28T06:07:14.223Z,90.00
2022-08-28T06:08:14.476Z,90.00
2022-08-28T06:09:14.199Z,90.00
2022-08-28T06:10:14.182Z,90.00
2022-08-28T06:11:14.173Z,95.62
2022-08-28T06:12:14.152Z,101.25
2022-08-28T06:13:14.141Z,106.88
2022-08-28T06:14:14.127Z,106.88
2022-08-28T06:15:14.121Z,112.50
2022-08-28T06:16:14.168Z,112.50
2022-08-28T06:17:14.094Z,112.50
2022-08-28T06:18:14.414Z,118.12
2022-08-28T06:19:14.066Z,118.12
2022-08-28T06:20:14.052Z,112.50
2022-08-28T06:21:14.037Z,112.50
2022-08-28T06:22:14.022Z,106.88
2022-08-28T06:23:14.007Z,95.62
2022-08-28T06:24:13.991Z,90.00
2022-08-28T06:25:13.983Z,90.00
2022-08-28T06:26:13.963Z,90.00
2022-08-28T06:27:13.957Z,90.00
2022-08-28T06:28:14.143Z,95.62
2022-08-28T06:29:13.940Z,106.88
2022-08-28T06:30:13.911Z,106.88
2022-08-28T06:31:24.324Z,101.25
2022-08-28T06:32:14.999Z,95.62
2022-08-28T06:33:13.883Z,95.62
2022-08-28T06:34:13.863Z,101.25
2022-08-28T06:35:13.844Z,118.12
2022-08-28T06:36:13.830Z,129.38
2022-08-28T06:37:13.823Z,129.38
2022-08-28T06:38:13.897Z,129.38
2022-08-28T06:39:13.801Z,123.75
2022-08-28T06:40:13.823Z,129.38
2022-08-28T06:41:13.773Z,129.38
2022-08-28T06:42:13.756Z,129.38
2022-08-28T06:43:13.744Z,129.38
2022-08-28T06:44:13.732Z,135.00
2022-08-28T06:45:13.720Z,135.00
2022-08-28T06:46:13.789Z,129.38
2022-08-28T06:47:13.690Z,129.38
2022-08-28T06:48:13.804Z,129.38
2022-08-28T06:49:13.664Z,129.38
2022-08-28T06:50:13.641Z,135.00
2022-08-28T06:51:13.630Z,135.00
2022-08-28T06:52:13.617Z,135.00
2022-08-28T06:53:13.604Z,129.38
2022-08-28T06:54:14.830Z,123.75
2022-08-28T06:55:13.583Z,123.75
2022-08-28T06:56:13.739Z,123.75
2022-08-28T06:57:14.574Z,123.75
2022-08-28T06:58:13.704Z,118.12
2022-08-28T06:59:13.531Z,118.12
2022-08-28T07:00:13.513Z,118.12
2022-08-28T07:01:14.091Z,118.12
2022-08-28T07:02:13.631Z,123.75
2022-08-28T07:03:13.470Z,129.38
2022-08-28T07:04:13.452Z,135.00
2022-08-28T07:05:13.442Z,135.00
2022-08-28T07:06:13.426Z,129.38
2022-08-28T07:07:31.298Z,123.75
2022-08-28T07:08:14.620Z,123.75
2022-08-28T07:09:13.396Z,123.75
2022-08-28T07:10:13.384Z,123.75
2022-08-28T07:11:13.359Z,135.00
2022-08-28T07:12:13.343Z,140.62
2022-08-28T07:13:13.334Z,140.62
2022-08-28T07:14:13.323Z,135.00
2022-08-28T07:15:13.306Z,135.00
2022-08-28T07:16:13.368Z,146.25
2022-08-28T07:17:13.283Z,174.38
2022-08-28T07:18:13.527Z,208.12
2022-08-28T07:19:13.259Z,230.62
2022-08-28T07:20:13.242Z,225.00
2022-08-28T07:21:13.230Z,225.00
2022-08-28T07:22:13.213Z,219.38
2022-08-28T07:23:13.206Z,213.75
2022-08-28T07:24:13.185Z,202.50
2022-08-28T07:25:13.177Z,196.88
2022-08-28T07:26:13.158Z,185.62
2022-08-28T07:27:18.315Z,174.38
2022-08-28T07:28:13.304Z,157.50
2022-08-28T07:29:13.127Z,151.88
2022-08-28T07:30:13.100Z,146.25
2022-08-28T07:31:13.150Z,140.62
2022-08-28T07:32:13.078Z,129.38
2022-08-28T07:33:13.204Z,123.75
2022-08-28T07:34:13.051Z,123.75
2022-08-28T07:35:13.046Z,129.38
2022-08-28T07:36:15.914Z,140.62
2022-08-28T07:37:15.406Z,151.88
2022-08-28T07:38:13.121Z,174.38
2022-08-28T07:39:12.990Z,196.88
2022-08-28T07:40:13.050Z,196.88
2022-08-28T07:41:12.963Z,180.00
2022-08-28T07:42:12.944Z,163.12
2022-08-28T07:43:12.940Z,157.50
2022-08-28T07:44:12.917Z,146.25
2022-08-28T07:45:12.907Z,146.25
2022-08-28T07:46:13.008Z,146.25
2022-08-28T07:47:12.884Z,135.00
2022-08-28T07:48:13.359Z,112.50
2022-08-28T07:49:12.858Z,95.62
2022-08-28T07:50:12.832Z,90.00
2022-08-28T07:51:12.832Z,90.00
2022-08-28T07:52:12.816Z,90.00
2022-08-28T07:53:12.805Z,90.00
2022-08-28T07:54:17.670Z,101.25
2022-08-28T07:55:12.771Z,123.75
2022-08-28T07:56:12.758Z,135.00
2022-08-28T07:57:12.746Z,140.62
2022-08-28T07:58:12.993Z,157.50
2022-08-28T07:59:13.973Z,213.75
2022-08-28T08:00:12.700Z,309.38
2022-08-28T08:01:12.759Z,399.38
2022-08-28T08:02:12.677Z,455.62
2022-08-28T08:03:12.703Z,511.88
2022-08-28T08:04:12.852Z,461.25
2022-08-28T08:05:12.638Z,371.25
2022-08-28T08:06:12.619Z,331.88
2022-08-28T08:07:12.612Z,348.75
2022-08-28T08:08:12.828Z,393.75
2022-08-28T08:09:12.586Z,410.62
2022-08-28T08:10:12.568Z,438.75
2022-08-28T08:11:16.530Z,517.50
2022-08-28T08:12:12.552Z,511.88
2022-08-28T08:13:12.534Z,421.88
2022-08-28T08:14:12.512Z,388.12
2022-08-28T08:15:12.515Z,421.88
2022-08-28T08:16:12.602Z,641.25
2022-08-28T08:17:12.484Z,534.38
2022-08-28T08:18:12.659Z,433.12
2022-08-28T08:19:12.454Z,393.75
2022-08-28T08:20:12.436Z,388.12
2022-08-28T08:21:12.425Z,399.38
2022-08-28T08:22:12.409Z,405.00
2022-08-28T08:23:12.402Z,405.00
2022-08-28T08:24:12.382Z,393.75
2022-08-28T08:25:13.394Z,399.38
2022-08-28T08:26:12.351Z,444.38
2022-08-28T08:27:12.345Z,483.75
2022-08-28T08:28:12.338Z,545.62
2022-08-28T08:29:12.315Z,630.00
2022-08-28T08:30:12.298Z,939.38
2022-08-28T08:31:12.356Z,1125.00
2022-08-28T08:32:12.285Z,618.75
2022-08-28T08:33:12.267Z,523.12
2022-08-28T08:34:12.248Z,461.25
2022-08-28T08:35:12.238Z,433.12
2022-08-28T08:36:12.221Z,416.25
2022-08-28T08:37:12.212Z,427.50
2022-08-28T08:38:12.208Z,450.00
2022-08-28T08:39:12.180Z,472.50
2022-08-28T08:40:12.226Z,472.50
2022-08-28T08:41:12.159Z,455.62
2022-08-28T08:42:12.138Z,388.12
2022-08-28T08:43:12.127Z,354.38
2022-08-28T08:44:12.114Z,331.88
2022-08-28T08:45:12.105Z,320.62
2022-08-28T08:46:12.254Z,343.12
2022-08-28T08:47:14.851Z,405.00
2022-08-28T08:48:12.235Z,438.75
2022-08-28T08:49:12.050Z,523.12
2022-08-28T08:50:12.035Z,641.25
2022-08-28T08:51:12.026Z,663.75
2022-08-28T08:52:12.006Z,703.12
2022-08-28T08:53:12.001Z,607.50
2022-08-28T08:54:11.987Z,545.62
2022-08-28T08:55:11.969Z,517.50
2022-08-28T08:56:11.958Z,500.62
2022-08-28T08:57:11.951Z,556.88
2022-08-28T08:58:12.000Z,534.38
2022-08-28T08:59:11.925Z,495.00
2022-08-28T09:00:15.820Z,523.12
2022-08-28T09:01:11.947Z,1046.25
2022-08-28T09:02:11.878Z,1012.50
2022-08-28T09:03:11.911Z,770.62
2022-08-28T09:04:15.641Z,635.62
2022-08-28T09:05:11.841Z,528.75
2022-08-28T09:06:11.824Z,450.00
2022-08-28T09:07:11.808Z,410.62
2022-08-28T09:08:11.823Z,416.25
2022-08-28T09:09:11.789Z,433.12
2022-08-28T09:10:11.777Z,489.38
2022-08-28T09:11:11.762Z,601.88
2022-08-28T09:12:11.744Z,663.75
2022-08-28T09:13:11.733Z,1186.88
2022-08-28T09:14:11.721Z,1861.88
2022-08-28T09:15:11.710Z,2019.38
2022-08-28T09:16:11.753Z,2075.62
2022-08-28T09:17:11.685Z,2064.38
2022-08-28T09:18:11.844Z,2053.12
2022-08-28T09:19:11.654Z,922.50
2022-08-28T09:20:11.635Z,590.62
2022-08-28T09:21:11.626Z,556.88
2022-08-28T09:22:11.612Z,495.00
2022-08-28T09:23:13.075Z,478.12
2022-08-28T09:24:11.894Z,478.12
2022-08-28T09:25:11.580Z,511.88
2022-08-28T09:26:12.572Z,579.38
2022-08-28T09:27:14.373Z,686.25
2022-08-28T09:28:11.636Z,1901.25
2022-08-28T09:29:11.530Z,1963.12
2022-08-28T09:30:11.511Z,894.38
2022-08-28T09:31:11.556Z,894.38
2022-08-28T09:32:11.488Z,725.62
2022-08-28T09:33:11.484Z,731.25
2022-08-28T09:34:11.457Z,765.00
2022-08-28T09:35:11.442Z,787.50
2022-08-28T09:36:11.439Z,725.62
2022-08-28T09:37:14.032Z,826.88
2022-08-28T09:38:11.696Z,905.62
2022-08-28T09:39:11.393Z,635.62
2022-08-28T09:40:11.418Z,551.25
2022-08-28T09:41:11.367Z,562.50
2022-08-28T09:42:11.355Z,635.62
2022-08-28T09:43:11.350Z,630.00
2022-08-28T09:44:11.332Z,995.62
2022-08-28T09:45:11.316Z,1507.50
2022-08-28T09:46:11.402Z,1215.00
2022-08-28T09:47:11.283Z,2193.75
2022-08-28T09:48:11.272Z,961.88
2022-08-28T09:49:11.270Z,911.25
2022-08-28T09:50:11.255Z,1996.88
2022-08-28T09:51:11.240Z,2295.00
2022-08-28T09:52:11.229Z,2143.12
2022-08-28T09:53:11.213Z,2221.88
2022-08-28T09:54:11.200Z,2154.38
2022-08-28T09:55:11.182Z,2025.00
2022-08-28T09:56:11.170Z,1113.75
2022-08-28T09:57:11.156Z,1445.62
2022-08-28T09:58:11.153Z,613.12
2022-08-28T09:59:11.132Z,630.00
2022-08-28T10:00:11.122Z,708.75
2022-08-28T10:01:11.201Z,770.62
2022-08-28T10:02:11.140Z,990.00
2022-08-28T10:03:11.083Z,2137.50
2022-08-28T10:04:11.116Z,2176.88
2022-08-28T10:05:11.056Z,1771.88
2022-08-28T10:06:11.044Z,871.88
2022-08-28T10:07:11.031Z,815.62
2022-08-28T10:08:11.024Z,776.25
2022-08-28T10:09:11.011Z,1507.50
2022-08-28T10:10:10.997Z,2379.38
2022-08-28T10:11:10.979Z,2373.75
2022-08-28T10:12:10.972Z,2311.88
2022-08-28T10:13:10.956Z,973.12
2022-08-28T10:14:10.949Z,1012.50
2022-08-28T10:15:10.928Z,607.50
2022-08-28T10:16:10.960Z,568.12
2022-08-28T10:17:10.903Z,534.38
2022-08-28T10:18:10.895Z,556.88
2022-08-28T10:19:10.886Z,613.12
2022-08-28T10:20:10.874Z,635.62
2022-08-28T10:21:10.857Z,680.62
2022-08-28T10:22:10.849Z,675.00
2022-08-28T10:23:14.442Z,675.00
2022-08-28T10:24:11.833Z,697.50
2022-08-28T10:25:10.800Z,753.75
2022-08-28T10:26:10.795Z,759.38
2022-08-28T10:27:10.775Z,765.00
2022-08-28T10:28:10.767Z,905.62
2022-08-28T10:29:10.750Z,843.75
2022-08-28T10:30:13.402Z,916.88
2022-08-28T10:31:10.800Z,905.62
2022-08-28T10:32:10.720Z,956.25
2022-08-28T10:33:10.702Z,1001.25
2022-08-28T10:34:10.693Z,900.00
2022-08-28T10:35:10.676Z,770.62
2022-08-28T10:36:32.923Z,680.62
2022-08-28T10:37:11.675Z,618.75
2022-08-28T10:38:10.644Z,601.88
2022-08-28T10:39:10.620Z,596.25
2022-08-28T10:40:10.651Z,596.25
2022-08-28T10:41:10.599Z,601.88
2022-08-28T10:42:10.585Z,618.75
2022-08-28T10:43:10.568Z,765.00
2022-08-28T10:44:10.565Z,804.38
2022-08-28T10:45:10.552Z,1006.88
2022-08-28T10:46:10.563Z,1074.38
2022-08-28T10:47:10.525Z,523.12
2022-08-28T10:48:10.516Z,450.00
2022-08-28T10:49:10.499Z,416.25
2022-08-28T10:50:10.488Z,388.12
2022-08-28T10:51:10.474Z,360.00
2022-08-28T10:52:10.467Z,343.12
2022-08-28T10:53:10.448Z,348.75
2022-08-28T10:54:10.434Z,382.50
2022-08-28T10:55:10.423Z,393.75
2022-08-28T10:56:10.415Z,405.00
2022-08-28T10:57:10.397Z,421.88
2022-08-28T10:58:24.478Z,438.75
2022-08-28T10:59:11.397Z,433.12
2022-08-28T11:00:10.366Z,455.62
2022-08-28T11:01:10.365Z,478.12
2022-08-28T11:02:10.355Z,489.38
2022-08-28T11:03:27.015Z,568.12
2022-08-28T11:04:11.329Z,1113.75
2022-08-28T11:05:10.295Z,725.62
2022-08-28T11:06:10.283Z,495.00
2022-08-28T11:07:10.263Z,450.00
2022-08-28T11:08:10.251Z,438.75
2022-08-28T11:09:10.239Z,438.75
2022-08-28T11:10:10.232Z,478.12
2022-08-28T11:11:10.211Z,483.75
2022-08-28T11:12:10.201Z,489.38
2022-08-28T11:13:10.305Z,489.38
2022-08-28T11:14:10.185Z,517.50
2022-08-28T11:15:10.167Z,545.62
2022-08-28T11:16:10.152Z,601.88
2022-08-28T11:17:10.250Z,652.50
2022-08-28T11:18:10.121Z,680.62
2022-08-28T11:19:10.110Z,1001.25
2022-08-28T11:20:10.109Z,2497.50
2022-08-28T11:21:10.090Z,1040.62
2022-08-28T11:22:10.075Z,1231.88
2022-08-28T11:23:10.053Z,1321.88
2022-08-28T11:24:10.043Z,658.12
2022-08-28T11:25:10.030Z,736.88
2022-08-28T11:26:10.030Z,731.25
2022-08-28T11:27:10.007Z,1687.50
2022-08-28T11:28:09.999Z,1001.25
2022-08-28T11:29:09.982Z,708.75
2022-08-28T11:30:09.973Z,658.12
2022-08-28T11:31:10.021Z,1164.38
2022-08-28T11:32:10.970Z,1119.38
2022-08-28T11:33:10.050Z,601.88
2022-08-28T11:34:09.915Z,478.12
2022-08-28T11:35:09.903Z,421.88
2022-08-28T11:36:09.894Z,410.62
2022-08-28T11:37:09.880Z,393.75
2022-08-28T11:38:09.865Z,393.75
2022-08-28T11:39:09.846Z,393.75
2022-08-28T11:40:09.868Z,410.62
2022-08-28T11:41:09.821Z,416.25
2022-08-28T11:42:09.812Z,405.00
2022-08-28T11:43:09.803Z,416.25
2022-08-28T11:44:09.789Z,427.50
2022-08-28T11:45:09.773Z,450.00
2022-08-28T11:46:09.850Z,478.12
2022-08-28T11:47:09.748Z,500.62
2022-08-28T11:48:09.735Z,517.50
2022-08-28T11:49:09.718Z,534.38
2022-08-28T11:50:09.717Z,540.00
2022-08-28T11:51:09.694Z,545.62
2022-08-28T11:52:09.681Z,573.75
2022-08-28T11:53:09.720Z,618.75
2022-08-28T11:54:09.658Z,680.62
2022-08-28T11:55:09.637Z,838.12
2022-08-28T11:56:09.625Z,849.38
2022-08-28T11:57:09.609Z,781.88
2022-08-28T11:58:33.186Z,821.25
2022-08-28T11:59:34.907Z,759.38
2022-08-28T12:00:33.158Z,871.88
2022-08-28T12:01:33.134Z,2126.25
2022-08-28T12:02:33.179Z,826.88
2022-08-28T12:03:33.118Z,720.00
2022-08-28T12:04:33.143Z,804.38
2022-08-28T12:05:33.096Z,562.50
2022-08-28T12:06:33.081Z,528.75
2022-08-28T12:07:33.063Z,517.50
2022-08-28T12:08:33.052Z,517.50
2022-08-28T12:09:33.040Z,540.00
2022-08-28T12:10:33.029Z,573.75
2022-08-28T12:11:33.008Z,585.00
2022-08-28T12:12:32.999Z,680.62
2022-08-28T12:13:32.982Z,2508.75
2022-08-28T12:14:32.978Z,2413.12
2022-08-28T12:15:32.953Z,2334.38
2022-08-28T12:16:32.950Z,2295.00
2022-08-28T12:17:32.934Z,2272.50
2022-08-28T12:18:32.921Z,2160.00
2022-08-28T12:19:32.905Z,1648.12
2022-08-28T12:20:32.897Z,1198.12
2022-08-28T12:21:32.880Z,1614.38
2022-08-28T12:22:32.870Z,1895.62
2022-08-28T12:23:32.854Z,1321.88
2022-08-28T12:24:32.847Z,939.38
2022-08-28T12:25:32.834Z,1175.62
2022-08-28T12:26:32.819Z,1276.88
2022-08-28T12:27:32.808Z,877.50
2022-08-28T12:28:32.799Z,2098.12
2022-08-28T12:29:32.780Z,1462.50
2022-08-28T12:30:32.827Z,483.75
2022-08-28T12:31:32.761Z,506.25
2022-08-28T12:32:32.747Z,601.88
2022-08-28T12:33:32.725Z,680.62
2022-08-28T12:34:32.728Z,658.12
2022-08-28T12:35:32.704Z,635.62
2022-08-28T12:36:32.698Z,675.00
2022-08-28T12:37:39.485Z,596.25
2022-08-28T12:38:33.690Z,753.75
2022-08-28T12:39:32.651Z,1096.88
2022-08-28T12:40:32.745Z,1771.88
2022-08-28T12:41:32.634Z,1935.00
2022-08-28T12:42:32.617Z,2064.38
2022-08-28T12:43:32.599Z,2058.75
2022-08-28T12:44:32.594Z,2160.00
2022-08-28T12:45:32.587Z,2171.25
2022-08-28T12:46:32.598Z,1996.88